createdAt,value
2018-02-14T00:00:11.488Z,109.50
2018-02-14T00:02:40.668Z,111.67
2018-02-14T00:05:09.808Z,117.93
2018-02-14T00:07:38.950Z,117.10
2018-02-14T00:10:08.094Z,114.27
2018-02-14T00:12:37.240Z,118.97
2018-02-14T00:15:06.400Z,116.10
2018-02-14T00:17:35.559Z,113.87
2018-02-14T00:20:04.704Z,116.47
2018-02-14T00:22:33.864Z,111.77
2018-02-14T00:25:03.012Z,120.17
2018-02-14T00:27:32.153Z,112.87
2018-02-14T00:30:01.335Z,115.97
2018-02-14T00:32:30.512Z,113.67
2018-02-14T00:34:59.673Z,114.53
2018-02-14T00:37:28.962Z,119.90
2018-02-14T00:39:58.098Z,114.23
2018-02-14T00:42:27.229Z,117.03
2018-02-14T00:44:56.380Z,112.70
2018-02-14T00:47:25.525Z,117.43
2018-02-14T00:49:54.656Z,125.07
2018-02-14T00:52:23.838Z,113.40
2018-02-14T00:54:54.198Z,111.67
2018-02-14T00:57:23.333Z,119.23
2018-02-14T00:59:52.591Z,114.70
2018-02-14T01:02:21.761Z,116.43
2018-02-14T01:04:50.912Z,124.30
2018-02-14T01:07:20.107Z,115.70
2018-02-14T01:09:49.246Z,117.13
2018-02-14T01:12:18.401Z,115.70
2018-02-14T01:14:47.572Z,114.00
2018-02-14T01:17:16.724Z,109.57
2018-02-14T01:19:45.861Z,111.17
2018-02-14T01:22:15.058Z,112.10
2018-02-14T01:24:44.214Z,117.17
2018-02-14T01:27:13.382Z,116.50
2018-02-14T01:29:42.561Z,115.47
2018-02-14T01:32:11.705Z,116.80
2018-02-14T01:34:40.856Z,114.17
2018-02-14T01:37:10.074Z,117.20
2018-02-14T01:39:39.212Z,115.70
2018-02-14T01:42:08.345Z,114.27
2018-02-14T01:44:37.543Z,112.63
2018-02-14T01:47:06.680Z,116.13
2018-02-14T01:49:35.828Z,114.67
2018-02-14T01:52:05.004Z,112.53
2018-02-14T01:54:34.132Z,117.17
2018-02-14T01:57:03.282Z,117.67
2018-02-14T01:59:32.461Z,119.90
2018-02-14T02:02:01.613Z,123.30
2018-02-14T02:04:30.908Z,117.47
2018-02-14T02:07:00.142Z,120.33
2018-02-14T02:09:29.303Z,112.50
2018-02-14T02:11:58.450Z,118.17
2018-02-14T02:14:27.609Z,112.03
2018-02-14T02:16:56.753Z,114.60
2018-02-14T02:19:25.896Z,114.40
2018-02-14T02:21:55.052Z,122.20
2018-02-14T02:24:24.200Z,116.67
2018-02-14T02:26:53.343Z,117.77
2018-02-14T02:29:22.522Z,119.83
2018-02-14T02:31:51.729Z,118.13
2018-02-14T02:34:20.873Z,119.23
2018-02-14T02:36:50.437Z,119.80
2018-02-14T02:39:25.515Z,118.87
2018-02-14T02:41:54.672Z,115.37
2018-02-14T02:44:23.805Z,121.80
2018-02-14T02:46:52.949Z,116.17
2018-02-14T02:49:22.122Z,115.00
2018-02-14T02:51:51.286Z,117.07
2018-02-14T02:54:20.432Z,112.77
2018-02-14T02:56:49.583Z,117.90
2018-02-14T02:59:18.759Z,117.00
2018-02-14T03:01:47.892Z,122.17
2018-02-14T03:04:17.030Z,118.33
2018-02-14T03:06:46.419Z,125.23
2018-02-14T03:09:15.561Z,115.67
2018-02-14T03:11:44.710Z,116.17
2018-02-14T03:14:13.894Z,116.87
2018-02-14T03:16:43.033Z,118.30
2018-02-14T03:19:12.197Z,113.27
2018-02-14T03:21:41.337Z,119.70
2018-02-14T03:24:10.513Z,118.30
2018-02-14T03:26:39.661Z,120.23
2018-02-14T03:29:08.802Z,118.63
2018-02-14T03:31:37.981Z,122.20
2018-02-14T03:34:07.123Z,122.70
2018-02-14T03:36:36.256Z,132.70
2018-02-14T03:39:05.432Z,128.33
2018-02-14T03:41:34.672Z,116.60
2018-02-14T03:44:03.769Z,119.33
2018-02-14T03:46:32.908Z,118.60
2018-02-14T03:49:02.408Z,116.47
2018-02-14T03:51:31.549Z,119.27
2018-02-14T03:54:00.701Z,121.43
2018-02-14T03:56:29.874Z,125.77
2018-02-14T03:58:59.022Z,124.03
2018-02-14T04:01:28.168Z,125.20
2018-02-14T04:03:57.305Z,128.77
2018-02-14T04:06:26.483Z,121.20
2018-02-14T04:08:56.158Z,121.17
2018-02-14T04:11:25.298Z,121.97
2018-02-14T04:13:54.462Z,123.43
2018-02-14T04:16:23.611Z,124.30
2018-02-14T04:18:52.740Z,122.77
2018-02-14T04:21:21.920Z,120.53
2018-02-14T04:23:51.065Z,128.20
2018-02-14T04:26:20.202Z,128.33
2018-02-14T04:28:49.388Z,121.47
2018-02-14T04:31:18.537Z,128.20
2018-02-14T04:33:47.692Z,123.47
2018-02-14T04:36:16.881Z,119.90
2018-02-14T04:38:46.038Z,124.27
2018-02-14T04:41:15.206Z,127.83
2018-02-14T04:43:44.361Z,126.07
2018-02-14T04:46:13.561Z,125.30
2018-02-14T04:48:42.737Z,122.10
2018-02-14T04:51:11.889Z,126.30
2018-02-14T04:53:41.038Z,126.17
2018-02-14T04:56:10.206Z,126.90
2018-02-14T04:58:39.370Z,121.57
2018-02-14T05:01:08.505Z,126.37
2018-02-14T05:03:37.657Z,128.30
2018-02-14T05:06:06.819Z,127.57
2018-02-14T05:08:35.954Z,122.87
2018-02-14T05:11:05.345Z,125.67
2018-02-14T05:13:34.525Z,125.57
2018-02-14T05:16:03.685Z,117.83
2018-02-14T05:18:32.820Z,124.60
2018-02-14T05:21:01.994Z,121.47
2018-02-14T05:23:31.122Z,129.03
2018-02-14T05:26:00.287Z,126.47
2018-02-14T05:28:29.458Z,123.97
2018-02-14T05:30:58.603Z,126.23
2018-02-14T05:33:27.801Z,127.10
2018-02-14T05:35:56.945Z,128.23
2018-02-14T05:38:26.084Z,124.33
2018-02-14T05:40:55.258Z,137.27
2018-02-14T05:43:24.394Z,123.40
2018-02-14T05:45:53.546Z,122.53
2018-02-14T05:48:22.733Z,129.10
2018-02-14T05:50:51.893Z,134.30
2018-02-14T05:53:21.034Z,130.33
2018-02-14T05:55:50.208Z,133.30
2018-02-14T05:58:19.400Z,128.73
2018-02-14T06:00:48.540Z,132.67
2018-02-14T06:03:17.727Z,130.10
2018-02-14T06:05:46.883Z,131.33
2018-02-14T06:08:16.409Z,122.90
2018-02-14T06:10:45.586Z,127.87
2018-02-14T06:13:15.298Z,124.33
2018-02-14T06:15:44.468Z,118.57
2018-02-14T06:18:14.230Z,122.23
2018-02-14T06:20:43.406Z,121.80
2018-02-14T06:23:12.614Z,124.97
2018-02-14T06:25:41.758Z,132.03
2018-02-14T06:28:10.945Z,129.97
2018-02-14T06:30:40.081Z,133.93
2018-02-14T06:33:09.286Z,129.57
2018-02-14T06:35:38.454Z,129.30
2018-02-14T06:38:07.649Z,129.90
2018-02-14T06:40:36.819Z,126.40
2018-02-14T06:43:05.961Z,128.50
2018-02-14T06:45:35.132Z,130.53
2018-02-14T06:48:04.259Z,128.03
2018-02-14T06:50:33.413Z,125.27
2018-02-14T06:53:02.877Z,129.50
2018-02-14T06:55:32.007Z,129.30
2018-02-14T06:58:01.153Z,131.23
2018-02-14T07:00:30.337Z,126.47
2018-02-14T07:02:59.486Z,129.50
2018-02-14T07:05:28.659Z,119.80
2018-02-14T07:07:57.801Z,119.37
2018-02-14T07:10:26.962Z,113.37
2018-02-14T07:12:56.145Z,116.60
2018-02-14T07:15:25.529Z,110.00
2018-02-14T07:17:54.681Z,109.50
2018-02-14T07:20:23.867Z,111.87
2018-02-14T07:22:53.025Z,111.13
2018-02-14T07:25:22.184Z,111.47
2018-02-14T07:27:51.350Z,106.23
2018-02-14T07:30:20.524Z,111.67
2018-02-14T07:32:49.730Z,111.20
2018-02-14T07:35:18.931Z,113.00
2018-02-14T07:37:48.079Z,104.57
2018-02-14T07:40:17.220Z,104.60
2018-02-14T07:42:46.416Z,105.60
2018-02-14T07:45:15.573Z,107.07
2018-02-14T07:47:44.708Z,104.57
2018-02-14T07:50:13.885Z,105.30
2018-02-14T07:52:43.076Z,101.07
2018-02-14T07:55:12.232Z,109.27
2018-02-14T07:57:41.412Z,110.97
2018-02-14T08:00:10.601Z,103.63
2018-02-14T08:02:39.758Z,107.03
2018-02-14T08:05:09.065Z,115.73
2018-02-14T08:07:38.222Z,107.63
2018-02-14T08:10:07.395Z,102.70
2018-02-14T08:12:36.602Z,106.63
2018-02-14T08:15:05.781Z,108.23
2018-02-14T08:17:34.926Z,105.57
2018-02-14T08:20:04.081Z,111.37
2018-02-14T08:22:33.238Z,105.90
2018-02-14T08:25:02.392Z,116.07
2018-02-14T08:27:31.545Z,106.50
2018-02-14T08:30:00.700Z,104.40
2018-02-14T08:32:29.853Z,108.60
2018-02-14T08:34:59.005Z,109.83
2018-02-14T08:37:28.171Z,109.10
2018-02-14T08:39:57.312Z,106.70
2018-02-14T08:42:26.458Z,108.20
2018-02-14T08:44:55.671Z,100.03
2018-02-14T08:47:24.825Z,104.57
2018-02-14T08:49:54.075Z,97.50
2018-02-14T08:52:23.243Z,103.10
2018-02-14T08:54:52.393Z,103.53
2018-02-14T08:57:21.536Z,103.47
2018-02-14T08:59:50.712Z,98.80
2018-02-14T09:02:19.862Z,101.47
2018-02-14T09:04:49.006Z,106.90
2018-02-14T09:07:18.209Z,102.77
2018-02-14T09:09:47.351Z,103.97
2018-02-14T09:12:16.515Z,101.77
2018-02-14T09:14:45.670Z,101.03
2018-02-14T09:17:14.824Z,99.80
2018-02-14T09:19:44.016Z,101.50
2018-02-14T09:22:13.164Z,103.97
2018-02-14T09:24:42.364Z,98.27
2018-02-14T09:27:11.541Z,105.87
2018-02-14T09:29:40.674Z,97.33
2018-02-14T09:32:09.872Z,102.97
2018-02-14T09:34:39.005Z,104.60
2018-02-14T09:37:08.188Z,106.03
2018-02-14T09:39:37.371Z,103.80
2018-02-14T09:42:06.505Z,94.90
2018-02-14T09:44:35.659Z,101.17
2018-02-14T09:47:04.882Z,96.00
2018-02-14T09:49:34.037Z,103.10
2018-02-14T09:52:03.183Z,97.80
2018-02-14T09:54:33.148Z,124.10
2018-02-14T09:57:02.296Z,103.70
2018-02-14T09:59:31.433Z,94.80
2018-02-14T10:02:00.615Z,97.57
2018-02-14T10:04:29.790Z,97.60
2018-02-14T10:06:58.940Z,96.17
2018-02-14T10:09:28.098Z,96.93
2018-02-14T10:11:57.305Z,97.40
2018-02-14T10:14:26.404Z,97.17
2018-02-14T10:16:55.541Z,102.83
2018-02-14T10:19:24.721Z,93.90
2018-02-14T10:21:53.862Z,96.07
2018-02-14T10:24:22.998Z,97.70
2018-02-14T10:26:52.166Z,108.80
2018-02-14T10:29:21.315Z,96.63
2018-02-14T10:31:50.440Z,94.17
2018-02-14T10:34:19.629Z,102.07
2018-02-14T10:36:48.773Z,105.90
2018-02-14T10:39:17.922Z,92.00
2018-02-14T10:41:47.100Z,95.30
2018-02-14T10:44:16.242Z,95.63
2018-02-14T10:46:45.397Z,94.50
2018-02-14T10:49:14.586Z,90.00
2018-02-14T10:51:43.723Z,97.60
2018-02-14T10:54:12.926Z,92.47
2018-02-14T10:56:42.456Z,90.23
2018-02-14T10:59:11.601Z,94.60
2018-02-14T11:01:46.485Z,92.20
2018-02-14T11:04:21.258Z,101.23
2018-02-14T11:06:50.537Z,90.90
2018-02-14T11:09:19.672Z,93.90
2018-02-14T11:11:48.854Z,92.43
2018-02-14T11:14:17.997Z,91.80
2018-02-14T11:16:47.131Z,94.80
2018-02-14T11:19:16.296Z,91.57
2018-02-14T11:21:45.429Z,93.90
2018-02-14T11:24:14.566Z,89.70
2018-02-14T11:26:43.730Z,94.03
2018-02-14T11:29:12.882Z,97.10
2018-02-14T11:31:42.070Z,95.00
2018-02-14T11:34:11.264Z,88.23
2018-02-14T11:36:40.411Z,92.97
2018-02-14T11:39:09.583Z,86.10
2018-02-14T11:41:38.730Z,92.17
2018-02-14T11:44:07.918Z,85.27
2018-02-14T11:46:37.067Z,93.17
2018-02-14T11:49:06.204Z,88.63
2018-02-14T11:51:35.402Z,87.23
2018-02-14T11:54:04.541Z,84.10
2018-02-14T11:56:33.689Z,86.03
2018-02-14T11:59:02.878Z,85.67
2018-02-14T12:01:32.018Z,82.33
2018-02-14T12:04:01.201Z,84.83
2018-02-14T12:06:30.335Z,86.00
2018-02-14T12:08:59.493Z,87.87
2018-02-14T12:11:28.958Z,86.00
2018-02-14T12:13:58.114Z,84.13
2018-02-14T12:16:27.257Z,88.10
2018-02-14T12:18:56.438Z,89.50
2018-02-14T12:21:25.584Z,83.87
2018-02-14T12:23:54.818Z,85.03
2018-02-14T12:26:23.973Z,82.60
2018-02-14T12:28:53.113Z,82.40
2018-02-14T12:31:22.249Z,85.20
2018-02-14T12:33:51.426Z,85.00
2018-02-14T12:36:20.573Z,82.60
2018-02-14T12:38:49.746Z,82.20
2018-02-14T12:41:18.920Z,83.17
2018-02-14T12:43:48.065Z,80.67
2018-02-14T12:46:17.198Z,81.80
2018-02-14T12:48:46.366Z,85.80
2018-02-14T12:51:15.547Z,82.20
2018-02-14T12:53:44.698Z,80.77
2018-02-14T12:56:13.867Z,81.07
2018-02-14T12:58:43.050Z,79.87
2018-02-14T13:01:12.259Z,79.87
2018-02-14T13:03:41.378Z,82.47
2018-02-14T13:06:10.527Z,83.17
2018-02-14T13:08:39.706Z,79.70
2018-02-14T13:11:08.842Z,82.67
2018-02-14T13:13:38.018Z,81.80
2018-02-14T13:16:07.170Z,77.67
2018-02-14T13:18:36.310Z,79.20
2018-02-14T13:21:05.523Z,82.80
2018-02-14T13:23:34.674Z,78.37
2018-02-14T13:26:03.872Z,82.37
2018-02-14T13:28:33.012Z,79.33
2018-02-14T13:31:02.177Z,87.57
2018-02-14T13:33:31.350Z,78.80
2018-02-14T13:36:00.485Z,77.47
2018-02-14T13:38:29.642Z,80.27
2018-02-14T13:40:58.858Z,79.17
2018-02-14T13:43:27.997Z,77.67
2018-02-14T13:45:57.140Z,77.50
2018-02-14T13:48:26.320Z,80.60
2018-02-14T13:50:55.451Z,79.77
2018-02-14T13:53:24.581Z,77.67
2018-02-14T13:55:54.120Z,78.77
2018-02-14T13:58:23.273Z,80.17
2018-02-14T14:00:52.402Z,79.20
2018-02-14T14:03:21.577Z,79.00
2018-02-14T14:05:50.886Z,78.27
2018-02-14T14:08:20.012Z,77.03
2018-02-14T14:10:49.183Z,78.90
2018-02-14T14:13:18.340Z,76.87
2018-02-14T14:15:47.483Z,79.23
2018-02-14T14:18:16.641Z,80.27
2018-02-14T14:20:45.778Z,76.90
2018-02-14T14:23:14.938Z,80.33
2018-02-14T14:25:44.111Z,79.57
2018-02-14T14:28:13.245Z,79.97
2018-02-14T14:30:42.390Z,78.90
2018-02-14T14:33:11.537Z,79.57
2018-02-14T14:35:40.660Z,81.47
2018-02-14T14:38:09.831Z,85.80
2018-02-14T14:40:38.969Z,81.77
2018-02-14T14:43:08.130Z,80.97
2018-02-14T14:45:37.262Z,83.90
2018-02-14T14:48:06.395Z,84.97
2018-02-14T14:50:35.585Z,81.33
2018-02-14T14:53:04.730Z,79.70
2018-02-14T14:55:33.887Z,83.17
2018-02-14T14:58:03.066Z,81.80
2018-02-14T15:00:32.217Z,80.47
2018-02-14T15:03:01.358Z,81.00
2018-02-14T15:05:30.524Z,84.73
2018-02-14T15:07:59.674Z,79.30
2018-02-14T15:10:28.899Z,80.33
2018-02-14T15:12:58.137Z,80.40
2018-02-14T15:15:27.284Z,84.70
2018-02-14T15:17:56.418Z,81.47
2018-02-14T15:20:25.597Z,81.10
2018-02-14T15:22:54.764Z,83.77
2018-02-14T15:25:23.901Z,82.67
2018-02-14T15:27:53.096Z,83.47
2018-02-14T15:30:22.234Z,82.03
2018-02-14T15:32:51.373Z,81.17
2018-02-14T15:35:20.553Z,83.80
2018-02-14T15:37:49.706Z,81.90
2018-02-14T15:40:18.873Z,84.43
2018-02-14T15:42:48.017Z,82.90
2018-02-14T15:45:17.161Z,83.50
2018-02-14T15:47:46.354Z,81.30
2018-02-14T15:50:15.495Z,84.50
2018-02-14T15:52:44.626Z,84.17
2018-02-14T15:55:13.815Z,81.70
2018-02-14T15:57:42.968Z,94.90
2018-02-14T16:00:12.147Z,86.50
2018-02-14T16:02:41.325Z,82.40
2018-02-14T16:05:10.507Z,83.93
2018-02-14T16:07:39.650Z,89.90
2018-02-14T16:10:08.820Z,81.90
2018-02-14T16:12:37.998Z,83.63
2018-02-14T16:15:07.130Z,82.83
2018-02-14T16:17:36.279Z,82.90
2018-02-14T16:20:05.423Z,83.90
2018-02-14T16:22:34.562Z,89.70
2018-02-14T16:25:03.749Z,86.37
2018-02-14T16:27:32.890Z,84.63
2018-02-14T16:30:02.033Z,91.60
2018-02-14T16:32:31.204Z,88.90
2018-02-14T16:35:00.345Z,89.57
2018-02-14T16:37:29.481Z,91.77
2018-02-14T16:39:58.649Z,90.07
2018-02-14T16:42:27.794Z,97.40
2018-02-14T16:44:56.941Z,99.10
2018-02-14T16:47:26.120Z,93.10
2018-02-14T16:49:55.284Z,96.17
2018-02-14T16:52:24.433Z,96.70
2018-02-14T16:54:53.572Z,96.07
2018-02-14T16:57:22.790Z,97.80
2018-02-14T16:59:52.852Z,108.83
2018-02-14T17:02:22.033Z,101.60
2018-02-14T17:04:51.174Z,102.60
2018-02-14T17:07:20.306Z,96.70
2018-02-14T17:09:49.481Z,95.00
2018-02-14T17:12:18.905Z,95.67
2018-02-14T17:14:48.434Z,100.73
2018-02-14T17:17:17.569Z,97.80
2018-02-14T17:19:46.709Z,97.47
2018-02-14T17:22:15.893Z,94.77
2018-02-14T17:24:45.030Z,99.10
2018-02-14T17:27:14.188Z,98.00
2018-02-14T17:29:43.345Z,97.27
2018-02-14T17:32:12.486Z,95.70
2018-02-14T17:34:41.639Z,97.07
2018-02-14T17:37:10.843Z,94.87
2018-02-14T17:39:39.992Z,100.50
2018-02-14T17:42:09.135Z,100.17
2018-02-14T17:44:38.303Z,94.77
2018-02-14T17:47:07.432Z,99.03
2018-02-14T17:49:36.574Z,99.17
2018-02-14T17:52:05.736Z,95.07
2018-02-14T17:54:34.895Z,97.60
2018-02-14T17:57:04.038Z,95.47
2018-02-14T17:59:33.202Z,98.90
2018-02-14T18:02:02.341Z,95.80
2018-02-14T18:04:31.504Z,97.80
2018-02-14T18:07:00.683Z,97.97
2018-02-14T18:09:29.833Z,100.60
2018-02-14T18:11:58.979Z,97.93
2018-02-14T18:14:28.624Z,96.27
2018-02-14T18:16:57.762Z,99.80
2018-02-14T18:19:26.902Z,99.10
2018-02-14T18:21:56.067Z,102.67
2018-02-14T18:24:25.227Z,99.30
2018-02-14T18:26:54.374Z,98.10
2018-02-14T18:29:23.520Z,100.43
2018-02-14T18:31:52.727Z,100.10
2018-02-14T18:34:21.867Z,99.53
2018-02-14T18:36:51.005Z,101.43
2018-02-14T18:39:20.160Z,97.00
2018-02-14T18:41:49.314Z,104.87
2018-02-14T18:44:18.471Z,97.20
2018-02-14T18:46:47.626Z,99.27
2018-02-14T18:49:16.792Z,95.10
2018-02-14T18:51:45.934Z,95.87
2018-02-14T18:54:15.083Z,94.43
2018-02-14T18:56:44.248Z,102.40
2018-02-14T18:59:13.393Z,95.23
2018-02-14T19:01:42.541Z,94.93
2018-02-14T19:04:11.729Z,103.20
2018-02-14T19:06:40.866Z,103.37
2018-02-14T19:09:10.035Z,102.07
2018-02-14T19:11:39.181Z,102.63
2018-02-14T19:14:08.321Z,100.53
2018-02-14T19:16:37.909Z,99.20
2018-02-14T19:19:07.098Z,99.33
2018-02-14T19:21:36.210Z,96.70
2018-02-14T19:24:05.382Z,101.77
2018-02-14T19:26:34.553Z,93.30
2018-02-14T19:29:03.695Z,98.47
2018-02-14T19:31:32.844Z,91.20
2018-02-14T19:34:02.046Z,98.57
2018-02-14T19:36:31.181Z,95.30
2018-02-14T19:39:00.370Z,96.60
2018-02-14T19:41:29.510Z,99.27
2018-02-14T19:43:58.745Z,105.57
2018-02-14T19:46:27.921Z,98.70
2018-02-14T19:48:57.071Z,97.27
2018-02-14T19:51:26.234Z,94.80
2018-02-14T19:53:55.384Z,100.97
2018-02-14T19:56:24.559Z,94.87
2018-02-14T19:58:53.695Z,93.57
2018-02-14T20:01:22.862Z,102.43
2018-02-14T20:03:51.999Z,96.43
2018-02-14T20:06:21.131Z,95.50
2018-02-14T20:08:50.312Z,96.10
2018-02-14T20:11:19.457Z,93.47
2018-02-14T20:13:48.611Z,96.40
2018-02-14T20:16:17.792Z,92.07
2018-02-14T20:18:46.930Z,100.13
2018-02-14T20:21:16.074Z,97.57
2018-02-14T20:23:45.251Z,97.70
2018-02-14T20:26:14.718Z,98.80
2018-02-14T20:28:43.879Z,98.37
2018-02-14T20:31:13.067Z,97.50
2018-02-14T20:33:42.251Z,99.20
2018-02-14T20:36:11.396Z,98.30
2018-02-14T20:38:40.544Z,100.20
2018-02-14T20:41:09.729Z,94.70
2018-02-14T20:43:38.900Z,98.47
2018-02-14T20:46:08.059Z,103.40
2018-02-14T20:48:37.209Z,96.07
2018-02-14T20:51:06.385Z,100.43
2018-02-14T20:53:35.586Z,104.53
2018-02-14T20:56:04.750Z,114.67
2018-02-14T20:58:33.904Z,103.60
2018-02-14T21:01:03.103Z,107.97
2018-02-14T21:03:32.237Z,139.77
2018-02-14T21:06:01.386Z,104.67
2018-02-14T21:08:30.577Z,105.10
2018-02-14T21:10:59.726Z,101.70
2018-02-14T21:13:28.873Z,106.43
2018-02-14T21:15:58.048Z,105.83
2018-02-14T21:18:27.202Z,108.30
2018-02-14T21:20:56.847Z,109.47
2018-02-14T21:23:26.044Z,108.13
2018-02-14T21:25:55.195Z,106.77
2018-02-14T21:28:24.333Z,111.57
2018-02-14T21:30:53.498Z,106.70
2018-02-14T21:33:22.655Z,114.30
2018-02-14T21:35:51.810Z,109.03
2018-02-14T21:38:20.993Z,115.47
2018-02-14T21:40:50.129Z,115.23
2018-02-14T21:43:19.266Z,108.77
2018-02-14T21:45:48.437Z,127.93
2018-02-14T21:48:17.577Z,112.47
2018-02-14T21:50:46.709Z,113.30
2018-02-14T21:53:15.893Z,115.20
2018-02-14T21:55:45.047Z,118.10
2018-02-14T21:58:14.252Z,112.57
2018-02-14T22:00:43.395Z,105.90
2018-02-14T22:03:12.559Z,115.73
2018-02-14T22:05:41.738Z,109.30
2018-02-14T22:08:10.908Z,117.50
2018-02-14T22:10:40.044Z,111.53
2018-02-14T22:13:09.180Z,108.07
2018-02-14T22:15:38.374Z,106.67
2018-02-14T22:18:07.539Z,119.50
2018-02-14T22:20:36.713Z,112.30
2018-02-14T22:23:06.308Z,119.47
2018-02-14T22:25:35.470Z,117.20
2018-02-14T22:28:04.629Z,121.97
2018-02-14T22:30:33.793Z,118.80
2018-02-14T22:33:02.932Z,117.43
2018-02-14T22:35:32.089Z,109.60
2018-02-14T22:38:01.270Z,125.30
2018-02-14T22:40:30.403Z,123.10
2018-02-14T22:42:59.558Z,111.47
2018-02-14T22:45:28.757Z,111.83
2018-02-14T22:47:57.909Z,116.77
2018-02-14T22:50:27.054Z,110.33
2018-02-14T22:52:56.218Z,114.87
2018-02-14T22:55:25.366Z,115.87
2018-02-14T22:57:54.523Z,114.30
2018-02-14T23:00:23.723Z,112.30
2018-02-14T23:02:52.897Z,116.70
2018-02-14T23:05:22.057Z,120.40
2018-02-14T23:07:51.229Z,117.27
2018-02-14T23:10:20.364Z,112.23
2018-02-14T23:12:49.553Z,115.07
2018-02-14T23:15:18.734Z,110.40
2018-02-14T23:17:47.881Z,112.17
2018-02-14T23:20:17.042Z,109.50
2018-02-14T23:22:46.209Z,115.10
2018-02-14T23:25:15.351Z,112.77
2018-02-14T23:27:44.501Z,117.57
2018-02-14T23:30:13.694Z,110.10
2018-02-14T23:32:42.867Z,114.40
2018-02-14T23:35:12.040Z,119.27
2018-02-14T23:37:41.185Z,107.63
2018-02-14T23:40:10.329Z,114.73
2018-02-14T23:42:39.505Z,106.67
2018-02-14T23:45:08.677Z,108.97
2018-02-14T23:47:37.810Z,109.77
2018-02-14T23:50:06.998Z,109.37
2018-02-14T23:52:36.134Z,116.97
2018-02-14T23:55:05.274Z,107.80
2018-02-14T23:57:34.441Z,111.03
